Time;durP1;ratioP1;P1;durP2;ratioP2;P2;SDS_P1;SDS_P2;PMS_P1;PMS_P2;Temp;Humidity;BMP_temperature;BMP_pressure;BME280_temperature;BME280_humidity;BME280_pressure;Samples;Min_cycle;Max_cycle;Signal;HPM_P1;HPM_P2
2023/12/28 00:00:18;;;;;;;16.08;7.78;;;3.70;70.00;;;;;;5002560;28;20473;-58
2023/12/28 00:02:43;;;;;;;11.50;6.75;;;3.60;69.90;;;;;;5003855;28;20077;-58
2023/12/28 00:05:09;;;;;;;14.10;7.07;;;3.60;70.00;;;;;;4998196;28;20592;-58
2023/12/28 00:07:35;;;;;;;16.13;7.90;;;3.60;70.10;;;;;;5001479;28;20409;-60
2023/12/28 00:10:02;;;;;;;12.35;7.07;;;3.60;70.40;;;;;;5001423;28;20029;-59
2023/12/28 00:12:27;;;;;;;12.00;6.75;;;3.80;70.80;;;;;;5003149;28;20026;-59
2023/12/28 00:14:53;;;;;;;12.63;6.75;;;3.70;70.80;;;;;;5004567;28;20026;-58
2023/12/28 00:17:19;;;;;;;10.25;6.88;;;3.70;70.60;;;;;;5002812;28;20049;-57
2023/12/28 00:19:45;;;;;;;15.48;6.88;;;3.70;70.20;;;;;;5000065;28;20042;-58
2023/12/28 00:22:10;;;;;;;10.05;5.80;;;3.70;70.20;;;;;;5002033;28;20048;-57
2023/12/28 00:24:36;;;;;;;11.52;6.63;;;3.70;70.00;;;;;;5001479;28;20029;-59
2023/12/28 00:27:02;;;;;;;11.48;6.10;;;3.60;69.90;;;;;;5006700;28;20117;-59
2023/12/28 00:29:28;;;;;;;14.23;7.20;;;3.60;69.90;;;;;;5008875;28;20029;-60
2023/12/28 00:31:54;;;;;;;13.73;7.93;;;3.60;69.80;;;;;;5003151;28;20506;-59
2023/12/28 00:34:20;;;;;;;15.68;8.90;;;3.60;70.00;;;;;;5002864;28;20124;-58
2023/12/28 00:36:45;;;;;;;15.82;8.63;;;3.60;70.20;;;;;;5003484;28;20550;-59
2023/12/28 00:39:11;;;;;;;13.05;7.97;;;3.50;70.10;;;;;;5006732;28;20034;-59
2023/12/28 00:41:37;;;;;;;14.77;8.02;;;3.50;70.10;;;;;;5013714;28;20492;-58
2023/12/28 00:44:03;;;;;;;15.48;8.15;;;3.60;70.30;;;;;;5013250;28;20053;-59
2023/12/28 00:46:28;;;;;;;19.52;8.10;;;3.50;70.30;;;;;;5013473;28;20026;-58
2023/12/28 00:48:54;;;;;;;13.93;8.10;;;3.40;70.00;;;;;;5013184;28;20022;-58
2023/12/28 00:53:49;;;;;;;13.00;6.53;;;3.40;70.30;;;;;;5394542;22;20080;-58
2023/12/28 00:56:15;;;;;;;11.02;6.05;;;3.40;70.30;;;;;;5011066;28;20415;-60
2023/12/28 00:58:43;;;;;;;11.80;6.43;;;3.40;70.40;;;;;;4956627;28;20026;-62
2023/12/28 01:01:09;;;;;;;10.30;6.10;;;3.40;70.70;;;;;;5005990;28;20046;-58
2023/12/28 01:03:35;;;;;;;9.68;6.22;;;3.60;71.00;;;;;;5006666;28;20040;-60
2023/12/28 01:06:01;;;;;;;13.20;6.10;;;3.40;71.10;;;;;;5007344;28;20038;-59
2023/12/28 01:08:27;;;;;;;11.88;7.30;;;3.50;71.30;;;;;;5005816;28;20026;-60
2023/12/28 01:10:53;;;;;;;12.85;6.63;;;3.40;71.00;;;;;;5007072;28;20044;-59
2023/12/28 01:13:18;;;;;;;11.60;5.90;;;3.40;70.90;;;;;;5009360;28;20116;-60
2023/12/28 01:15:44;;;;;;;9.43;5.57;;;3.40;70.90;;;;;;5002729;28;20026;-60
2023/12/28 01:18:10;;;;;;;11.63;6.68;;;3.80;70.80;;;;;;5011220;28;20037;-58
2023/12/28 01:20:35;;;;;;;11.63;7.00;;;3.50;70.70;;;;;;5004410;28;20768;-60
2023/12/28 01:23:02;;;;;;;11.05;6.85;;;3.50;70.60;;;;;;5002558;28;20029;-60
2023/12/28 01:25:27;;;;;;;9.88;6.60;;;3.50;70.60;;;;;;5000424;28;20026;-59
2023/12/28 01:27:53;;;;;;;11.02;5.80;;;3.50;70.50;;;;;;4998042;28;20037;-60
2023/12/28 01:30:18;;;;;;;12.57;6.25;;;3.60;70.60;;;;;;5002389;28;20045;-60
2023/12/28 01:32:44;;;;;;;9.32;6.30;;;3.50;70.60;;;;;;4998525;28;20664;-60
2023/12/28 01:35:10;;;;;;;11.75;6.43;;;3.50;70.50;;;;;;5000518;28;20038;-60
2023/12/28 01:37:35;;;;;;;13.43;6.70;;;3.40;70.50;;;;;;5001088;28;20070;-60
2023/12/28 01:40:02;;;;;;;10.38;6.63;;;3.40;70.40;;;;;;4985929;28;20500;-59
2023/12/28 01:42:30;;;;;;;12.88;6.57;;;3.50;70.40;;;;;;5001196;28;20033;-60
2023/12/28 01:44:57;;;;;;;15.30;6.57;;;3.40;70.00;;;;;;5001662;28;20037;-60
2023/12/28 01:47:22;;;;;;;13.15;7.20;;;3.40;70.10;;;;;;5005952;28;20109;-60
2023/12/28 01:49:48;;;;;;;14.63;7.75;;;3.40;70.20;;;;;;4987551;28;20053;-59
2023/12/28 01:52:14;;;;;;;13.18;7.50;;;3.40;70.30;;;;;;5002518;28;20460;-60
2023/12/28 01:54:40;;;;;;;14.95;7.38;;;3.40;70.20;;;;;;5005445;28;20049;-60
2023/12/28 01:57:06;;;;;;;16.33;7.43;;;3.70;70.30;;;;;;5005978;28;20030;-60
2023/12/28 01:59:32;;;;;;;12.98;7.70;;;3.30;69.90;;;;;;5005004;28;20080;-60
2023/12/28 02:01:59;;;;;;;15.77;7.50;;;3.30;69.90;;;;;;4986017;28;20036;-59
2023/12/28 02:04:28;;;;;;;14.13;7.70;;;3.60;70.10;;;;;;5004338;28;20026;-59
2023/12/28 02:06:59;;;;;;;15.70;7.10;;;3.30;69.90;;;;;;5005878;28;20109;-60
2023/12/28 02:09:25;;;;;;;14.70;7.32;;;3.30;69.90;;;;;;5006122;28;20060;-60
2023/12/28 02:11:51;;;;;;;13.80;6.95;;;3.20;69.60;;;;;;5002355;28;20065;-59
2023/12/28 02:14:18;;;;;;;11.55;5.90;;;3.20;69.80;;;;;;4992442;28;20026;-58
2023/12/28 02:16:54;;;;;;;10.05;5.85;;;3.20;69.80;;;;;;5008945;28;20036;-60
2023/12/28 02:19:35;;;;;;;12.70;6.53;;;3.20;69.90;;;;;;5003464;28;20579;-59
2023/12/28 02:22:02;;;;;;;9.63;6.03;;;3.30;70.10;;;;;;5005477;28;20026;-58
2023/12/28 02:24:27;;;;;;;13.32;7.10;;;3.50;70.20;;;;;;5000495;28;20538;-60
2023/12/28 02:26:53;;;;;;;13.07;5.75;;;3.10;69.80;;;;;;5007310;28;20136;-59
2023/12/28 02:29:19;;;;;;;9.43;5.93;;;3.20;69.90;;;;;;5005503;28;20038;-59
2023/12/28 02:31:58;;;;;;;9.68;5.63;;;3.40;70.10;;;;;;5004544;28;20045;-58
2023/12/28 02:34:30;;;;;;;9.75;6.15;;;3.10;70.20;;;;;;4989156;28;20034;-59
2023/12/28 02:36:57;;;;;;;10.30;5.65;;;3.10;70.00;;;;;;4999811;28;20557;-60
2023/12/28 02:39:24;;;;;;;9.10;5.80;;;3.10;70.00;;;;;;5004572;28;20026;-61
2023/12/28 02:41:50;;;;;;;12.77;5.38;;;3.30;70.10;;;;;;5004859;28;20036;-61
2023/12/28 02:44:16;;;;;;;9.27;5.50;;;3.10;69.80;;;;;;5002050;28;20367;-59
2023/12/28 02:46:42;;;;;;;12.45;5.38;;;3.10;69.60;;;;;;5003748;28;20041;-60
2023/12/28 02:49:10;;;;;;;9.05;5.25;;;3.10;69.80;;;;;;5005577;28;20061;-60
2023/12/28 02:51:36;;;;;;;8.70;5.32;;;3.00;69.70;;;;;;5006800;28;20049;-60
2023/12/28 02:54:01;;;;;;;8.80;5.93;;;3.00;69.80;;;;;;5005771;28;20113;-60
2023/12/28 02:56:27;;;;;;;8.13;5.20;;;2.90;69.80;;;;;;5001657;28;20393;-59
2023/12/28 02:58:53;;;;;;;9.65;5.28;;;2.90;69.70;;;;;;5011700;28;20071;-57
2023/12/28 03:01:18;;;;;;;8.68;5.18;;;2.90;69.90;;;;;;4951874;28;21381;-58
2023/12/28 03:03:44;;;;;;;7.75;4.95;;;2.90;69.90;;;;;;4997673;28;20451;-59
2023/12/28 03:06:09;;;;;;;8.43;4.70;;;2.90;69.80;;;;;;5010353;28;20033;-58
2023/12/28 03:08:35;;;;;;;6.45;4.40;;;2.90;70.00;;;;;;5003833;28;20049;-59
2023/12/28 03:11:01;;;;;;;7.30;4.60;;;3.10;70.30;;;;;;5006316;28;20061;-61
2023/12/28 03:13:26;;;;;;;11.27;5.10;;;2.80;70.10;;;;;;5004427;28;20026;-59
2023/12/28 03:15:52;;;;;;;8.20;4.80;;;2.80;70.10;;;;;;5004368;28;20032;-60
2023/12/28 03:18:17;;;;;;;8.38;5.07;;;2.80;70.10;;;;;;5003735;28;20041;-60
2023/12/28 03:20:43;;;;;;;7.70;4.78;;;2.80;70.20;;;;;;5002653;28;20037;-61
2023/12/28 03:23:11;;;;;;;6.60;4.57;;;2.80;70.10;;;;;;5003990;28;20377;-59
2023/12/28 03:25:36;;;;;;;10.35;4.72;;;2.80;70.10;;;;;;4999956;28;20030;-58
2023/12/28 03:28:02;;;;;;;8.98;5.60;;;2.80;70.10;;;;;;5004835;28;20657;-59
2023/12/28 03:30:28;;;;;;;7.38;4.93;;;2.80;70.00;;;;;;5004398;28;20050;-59
2023/12/28 03:32:53;;;;;;;7.45;4.75;;;2.80;70.00;;;;;;5000343;28;20329;-59
2023/12/28 03:35:19;;;;;;;8.48;4.70;;;2.80;69.90;;;;;;5003330;28;20045;-60
2023/12/28 03:37:45;;;;;;;6.75;4.40;;;2.70;70.00;;;;;;5000449;28;20037;-59
2023/12/28 03:40:11;;;;;;;6.72;4.75;;;2.70;70.20;;;;;;5004422;28;20038;-59
2023/12/28 03:42:38;;;;;;;7.10;4.53;;;2.70;70.20;;;;;;5004664;28;20025;-59
2023/12/28 03:45:04;;;;;;;8.43;5.38;;;2.70;70.40;;;;;;5001158;28;20034;-59
2023/12/28 03:47:29;;;;;;;11.43;6.55;;;2.70;70.40;;;;;;5002756;28;20134;-59
2023/12/28 03:49:56;;;;;;;8.57;6.07;;;2.90;70.50;;;;;;4998154;28;20579;-58
2023/12/28 03:52:23;;;;;;;7.03;5.38;;;2.80;70.50;;;;;;5009067;28;20039;-60
2023/12/28 03:54:48;;;;;;;9.23;5.70;;;2.70;70.30;;;;;;4986092;28;20037;-59
2023/12/28 03:57:14;;;;;;;8.63;4.93;;;2.70;70.20;;;;;;5003221;28;20581;-58
2023/12/28 03:59:41;;;;;;;8.85;5.60;;;2.60;70.70;;;;;;4925332;28;20037;-58
2023/12/28 04:02:07;;;;;;;9.20;5.15;;;2.60;70.20;;;;;;5002422;28;20100;-59
2023/12/28 04:04:33;;;;;;;8.27;5.38;;;3.00;70.50;;;;;;5003195;28;20472;-59
2023/12/28 04:06:58;;;;;;;8.38;5.10;;;2.60;70.30;;;;;;5003703;28;20088;-58
2023/12/28 04:09:24;;;;;;;9.90;5.00;;;2.60;70.30;;;;;;5001849;28;20022;-60
2023/12/28 04:11:49;;;;;;;6.72;4.20;;;2.60;70.30;;;;;;5000936;28;20129;-59
2023/12/28 04:14:15;;;;;;;12.13;4.40;;;2.90;70.60;;;;;;5007645;28;20049;-59
2023/12/28 04:16:41;;;;;;;8.90;4.25;;;2.60;70.30;;;;;;5003327;28;20026;-59
2023/12/28 04:19:06;;;;;;;6.65;4.63;;;2.60;70.20;;;;;;5005280;28;20040;-58
2023/12/28 04:21:32;;;;;;;10.73;4.50;;;2.60;70.40;;;;;;5005169;28;20096;-59
2023/12/28 04:23:57;;;;;;;7.43;3.92;;;2.60;70.50;;;;;;5004584;28;20032;-60
2023/12/28 04:26:23;;;;;;;5.72;4.10;;;2.60;70.30;;;;;;5003172;28;20032;-59
2023/12/28 04:28:49;;;;;;;7.93;3.78;;;2.60;70.30;;;;;;5007355;28;20029;-58
2023/12/28 04:31:14;;;;;;;6.47;4.25;;;2.50;70.20;;;;;;5005164;28;20057;-59
2023/12/28 04:33:40;;;;;;;7.63;4.13;;;2.50;70.20;;;;;;5005171;28;20059;-59
2023/12/28 04:36:06;;;;;;;6.55;3.83;;;2.60;70.10;;;;;;5000311;28;20037;-60
2023/12/28 04:38:32;;;;;;;9.43;4.43;;;2.50;70.00;;;;;;5002418;28;20057;-59
2023/12/28 04:40:58;;;;;;;6.85;3.63;;;2.60;70.10;;;;;;5003656;28;20042;-60
2023/12/28 04:43:24;;;;;;;4.85;3.30;;;2.60;70.30;;;;;;5003545;28;20022;-60
2023/12/28 04:45:50;;;;;;;4.80;3.35;;;2.80;70.50;;;;;;5002945;28;20436;-59
2023/12/28 04:48:20;;;;;;;8.30;3.92;;;2.50;70.40;;;;;;5002311;28;20112;-59
2023/12/28 04:50:47;;;;;;;6.18;3.47;;;2.60;70.60;;;;;;5001868;28;20049;-60
2023/12/28 04:53:13;;;;;;;7.93;4.65;;;2.50;70.40;;;;;;5005986;28;20044;-59
2023/12/28 04:55:39;;;;;;;5.65;4.00;;;2.50;70.40;;;;;;5001316;28;20030;-59
2023/12/28 04:58:05;;;;;;;6.35;3.88;;;2.50;70.40;;;;;;5002691;28;20483;-58
2023/12/28 05:00:30;;;;;;;7.45;3.70;;;2.50;70.40;;;;;;4931218;28;20022;-58
2023/12/28 05:02:56;;;;;;;6.28;3.72;;;2.50;70.40;;;;;;5002628;28;20045;-58
2023/12/28 05:05:21;;;;;;;6.00;3.97;;;2.50;70.50;;;;;;5000620;28;20488;-59
2023/12/28 05:07:47;;;;;;;8.60;3.67;;;2.60;70.50;;;;;;5004264;28;20655;-59
2023/12/28 05:10:13;;;;;;;5.22;3.88;;;2.50;70.60;;;;;;4997995;28;20049;-60
2023/12/28 05:12:38;;;;;;;5.15;3.70;;;2.60;70.80;;;;;;5003271;28;20030;-60
2023/12/28 05:15:05;;;;;;;4.90;3.65;;;2.60;70.90;;;;;;5001433;28;20061;-59
2023/12/28 05:17:30;;;;;;;5.18;3.88;;;2.50;70.70;;;;;;5003935;28;20042;-59
2023/12/28 05:19:56;;;;;;;6.35;3.72;;;2.50;70.60;;;;;;5000360;28;20100;-58
2023/12/28 05:22:22;;;;;;;5.47;3.80;;;2.70;71.40;;;;;;5002594;28;20034;-60
2023/12/28 05:24:48;;;;;;;6.13;3.72;;;2.50;70.60;;;;;;5002510;28;20030;-60
2023/12/28 05:27:13;;;;;;;5.82;3.95;;;2.50;70.50;;;;;;5007072;28;20061;-59
2023/12/28 05:29:39;;;;;;;8.25;4.35;;;2.50;70.50;;;;;;5000714;28;20033;-58
2023/12/28 05:32:05;;;;;;;6.10;3.95;;;2.50;70.50;;;;;;5002715;28;20136;-58
2023/12/28 05:34:31;;;;;;;8.02;4.25;;;2.50;70.50;;;;;;5001698;28;20021;-59
2023/12/28 05:36:56;;;;;;;5.80;4.22;;;2.60;70.70;;;;;;4996030;28;20040;-58
2023/12/28 05:39:22;;;;;;;7.00;4.13;;;2.50;70.70;;;;;;4981357;28;20030;-59
2023/12/28 05:41:50;;;;;;;7.45;4.13;;;2.50;70.80;;;;;;5002650;28;20026;-60
2023/12/28 05:44:16;;;;;;;13.18;4.22;;;2.70;70.90;;;;;;5002456;28;20041;-58
2023/12/28 05:46:42;;;;;;;6.88;3.75;;;2.50;70.80;;;;;;5002363;28;20033;-58
2023/12/28 05:49:07;;;;;;;6.22;4.03;;;2.50;70.80;;;;;;5004518;28;20041;-59
2023/12/28 05:51:40;;;;;;;11.90;4.13;;;2.60;70.90;;;;;;4996635;28;20540;-58
2023/12/28 05:54:06;;;;;;;9.57;4.05;;;2.60;71.00;;;;;;4984409;28;20453;-61
2023/12/28 05:56:32;;;;;;;6.22;3.92;;;2.60;70.90;;;;;;4998803;28;20117;-60
2023/12/28 05:58:58;;;;;;;7.93;4.65;;;2.70;71.00;;;;;;4946435;28;20461;-60
2023/12/28 06:01:24;;;;;;;8.93;4.13;;;2.60;71.10;;;;;;5006819;28;20029;-59
2023/12/28 06:03:52;;;;;;;5.82;4.30;;;2.70;71.40;;;;;;4998429;28;20030;-60
2023/12/28 06:06:18;;;;;;;6.82;3.95;;;2.70;71.40;;;;;;5002445;28;20029;-60
2023/12/28 06:08:44;;;;;;;6.38;4.15;;;2.90;71.60;;;;;;4997875;28;20031;-59
2023/12/28 06:11:09;;;;;;;5.05;3.63;;;3.10;71.90;;;;;;4999834;28;20705;-60
2023/12/28 06:13:35;;;;;;;5.43;3.50;;;2.80;71.70;;;;;;5002289;28;20102;-58
2023/12/28 06:16:01;;;;;;;10.32;3.25;;;2.80;71.60;;;;;;5000082;28;20034;-60
2023/12/28 06:18:26;;;;;;;5.30;3.40;;;2.80;71.70;;;;;;5002653;28;20084;-60
2023/12/28 06:20:52;;;;;;;7.38;3.63;;;3.20;72.00;;;;;;5006156;28;20036;-60
2023/12/28 06:23:18;;;;;;;14.02;3.88;;;2.90;72.00;;;;;;5002400;28;20164;-58
2023/12/28 06:25:43;;;;;;;3.50;2.75;;;2.90;71.80;;;;;;4998635;28;20026;-60
2023/12/28 06:28:09;;;;;;;5.68;3.63;;;2.90;71.80;;;;;;5002174;28;20034;-60
2023/12/28 06:30:35;;;;;;;5.78;3.65;;;3.00;72.00;;;;;;5002051;28;20112;-59
2023/12/28 06:33:00;;;;;;;7.28;3.60;;;3.00;72.10;;;;;;5005689;28;20026;-59
2023/12/28 06:35:26;;;;;;;4.97;3.03;;;3.10;72.10;;;;;;4998764;28;20029;-60
2023/12/28 06:37:52;;;;;;;4.25;3.22;;;3.40;72.00;;;;;;4991364;28;20034;-58
2023/12/28 06:40:17;;;;;;;6.35;3.58;;;3.20;72.00;;;;;;5005164;28;20022;-59
2023/12/28 06:42:43;;;;;;;6.80;3.47;;;3.10;71.90;;;;;;5005653;28;20057;-59
2023/12/28 06:45:10;;;;;;;5.22;3.50;;;3.10;71.80;;;;;;5004438;28;20084;-60
2023/12/28 06:47:35;;;;;;;6.28;4.07;;;3.20;72.00;;;;;;5005880;28;20037;-60
2023/12/28 06:50:01;;;;;;;6.57;3.42;;;3.20;72.00;;;;;;5005440;28;20030;-60
2023/12/28 06:52:26;;;;;;;5.65;3.80;;;3.20;72.20;;;;;;5005068;28;20029;-60
2023/12/28 06:54:53;;;;;;;6.03;3.90;;;3.20;72.20;;;;;;5005434;28;20046;-60
2023/12/28 06:57:19;;;;;;;5.75;3.90;;;3.30;72.20;;;;;;5003905;28;20038;-57
2023/12/28 06:59:46;;;;;;;8.15;4.10;;;3.30;72.30;;;;;;4932587;28;20084;-60
2023/12/28 07:02:11;;;;;;;10.65;4.68;;;3.40;72.40;;;;;;5002929;28;20109;-59
2023/12/28 07:04:38;;;;;;;5.63;4.13;;;3.60;72.60;;;;;;5005353;28;20128;-59
2023/12/28 07:07:03;;;;;;;7.95;4.32;;;3.50;72.70;;;;;;5007388;28;20507;-59
2023/12/28 07:09:29;;;;;;;8.30;4.40;;;3.80;73.00;;;;;;4984874;28;20026;-60
2023/12/28 07:11:54;;;;;;;7.68;4.10;;;3.80;73.00;;;;;;5007732;28;20511;-60
2023/12/28 07:14:20;;;;;;;9.00;4.25;;;3.70;72.70;;;;;;5006652;28;20065;-61
2023/12/28 07:16:46;;;;;;;5.63;4.10;;;3.70;72.80;;;;;;5004483;28;20030;-59
2023/12/28 07:19:11;;;;;;;5.63;3.85;;;3.80;72.80;;;;;;5005016;28;20030;-60
2023/12/28 07:21:37;;;;;;;12.00;4.10;;;3.80;72.80;;;;;;5004423;28;20026;-61
2023/12/28 07:24:03;;;;;;;5.60;3.75;;;3.90;72.90;;;;;;5007190;28;20030;-61
2023/12/28 07:26:28;;;;;;;6.32;3.33;;;4.00;72.90;;;;;;5006341;28;20120;-60
2023/12/28 07:28:54;;;;;;;6.60;3.75;;;4.00;72.90;;;;;;5008231;28;20025;-60
2023/12/28 07:31:27;;;;;;;7.72;3.70;;;4.10;72.90;;;;;;5003703;28;20052;-62
2023/12/28 07:33:54;;;;;;;5.65;3.50;;;4.20;73.20;;;;;;5002801;28;20042;-60
2023/12/28 07:36:20;;;;;;;8.02;3.50;;;4.30;72.90;;;;;;5000811;28;20030;-61
2023/12/28 07:38:46;;;;;;;7.22;3.58;;;4.30;72.90;;;;;;5008285;28;20032;-61
2023/12/28 07:41:11;;;;;;;7.45;4.07;;;4.40;72.90;;;;;;5008475;28;20037;-61
2023/12/28 07:43:37;;;;;;;5.82;3.92;;;4.40;72.80;;;;;;5002731;28;20042;-60
2023/12/28 07:46:03;;;;;;;7.22;4.30;;;4.50;72.80;;;;;;5007914;28;20037;-60
2023/12/28 07:48:30;;;;;;;6.95;4.35;;;4.60;72.80;;;;;;4987548;28;20030;-61
2023/12/28 07:50:56;;;;;;;8.52;4.22;;;4.60;72.70;;;;;;5004457;28;20050;-60
2023/12/28 07:53:22;;;;;;;6.32;4.00;;;4.70;72.70;;;;;;5000581;28;20065;-61
2023/12/28 07:55:48;;;;;;;13.38;4.80;;;4.70;72.50;;;;;;5004564;28;20038;-62
2023/12/28 07:58:14;;;;;;;10.98;5.03;;;4.80;72.40;;;;;;4997928;28;20022;-60
2023/12/28 08:00:40;;;;;;;8.90;4.18;;;4.90;72.50;;;;;;4937972;28;20033;-60
2023/12/28 08:03:05;;;;;;;7.10;4.10;;;4.90;72.50;;;;;;5003750;28;20096;-61
2023/12/28 08:05:31;;;;;;;8.55;4.15;;;4.90;72.40;;;;;;4999837;28;20073;-61
2023/12/28 08:07:57;;;;;;;7.38;4.38;;;5.00;72.40;;;;;;5005076;28;20109;-62
2023/12/28 08:10:22;;;;;;;9.13;4.68;;;5.00;72.30;;;;;;5005083;28;20458;-62
2023/12/28 08:12:48;;;;;;;7.40;4.22;;;5.10;72.40;;;;;;4999981;28;20490;-60
2023/12/28 08:15:14;;;;;;;11.88;4.43;;;5.10;72.40;;;;;;4996203;28;20030;-62
2023/12/28 08:17:39;;;;;;;7.25;4.50;;;5.20;72.40;;;;;;4997181;28;20491;-62
2023/12/28 08:20:06;;;;;;;7.55;4.47;;;5.20;72.50;;;;;;5004493;28;20076;-60
2023/12/28 08:22:32;;;;;;;25.25;12.95;;;5.30;72.60;;;;;;5002364;28;20017;-62
2023/12/28 08:24:58;;;;;;;28.35;13.45;;;5.30;72.50;;;;;;5003485;28;20080;-61
2023/12/28 08:27:23;;;;;;;27.27;13.50;;;5.40;72.60;;;;;;5003350;28;20049;-62
2023/12/28 08:29:49;;;;;;;49.20;23.70;;;5.40;72.50;;;;;;5002334;28;20033;-61
2023/12/28 08:32:15;;;;;;;50.30;25.27;;;5.40;72.40;;;;;;5004676;28;20572;-61
2023/12/28 08:34:40;;;;;;;22.20;12.73;;;5.50;72.50;;;;;;5003176;28;20546;-60
2023/12/28 08:37:06;;;;;;;17.52;9.98;;;5.50;72.50;;;;;;5003426;28;20065;-60
2023/12/28 08:39:32;;;;;;;10.57;5.70;;;5.60;72.50;;;;;;4986996;28;20701;-61
2023/12/28 08:41:58;;;;;;;8.63;4.55;;;5.70;72.30;;;;;;5001833;28;20030;-60
2023/12/28 08:44:23;;;;;;;8.10;4.15;;;5.70;72.20;;;;;;4988785;28;20764;-60
2023/12/28 08:46:49;;;;;;;8.18;3.83;;;5.70;72.10;;;;;;4996546;28;20045;-60
2023/12/28 08:49:15;;;;;;;7.75;4.45;;;5.80;72.10;;;;;;4985484;28;20048;-62
2023/12/28 08:51:42;;;;;;;8.73;3.95;;;5.80;72.10;;;;;;5002898;28;20048;-61
2023/12/28 08:54:08;;;;;;;5.88;3.55;;;5.90;72.20;;;;;;5002029;28;20064;-61
2023/12/28 08:56:34;;;;;;;13.45;4.20;;;5.90;72.10;;;;;;5006150;28;20435;-60
2023/12/28 08:59:00;;;;;;;11.63;4.10;;;5.90;72.10;;;;;;4951027;28;20079;-59
2023/12/28 09:01:25;;;;;;;5.28;3.58;;;6.00;72.10;;;;;;5004382;28;20095;-61
2023/12/28 09:03:53;;;;;;;8.60;4.38;;;6.00;72.10;;;;;;5003446;28;20527;-61
2023/12/28 09:06:20;;;;;;;7.72;3.97;;;6.00;72.00;;;;;;4999485;28;20447;-60
2023/12/28 09:08:48;;;;;;;9.27;4.75;;;6.10;71.90;;;;;;5005267;28;20080;-61
2023/12/28 09:11:14;;;;;;;8.85;5.25;;;6.20;71.90;;;;;;5006884;28;20133;-61
2023/12/28 09:13:41;;;;;;;12.35;5.13;;;6.20;71.80;;;;;;5002849;28;20041;-61
2023/12/28 09:16:12;;;;;;;11.65;5.95;;;6.20;71.70;;;;;;5002218;28;20026;-61
2023/12/28 09:18:39;;;;;;;7.50;4.60;;;6.30;71.60;;;;;;5003499;28;20820;-61
2023/12/28 09:21:06;;;;;;;7.47;4.45;;;6.40;71.60;;;;;;5006491;28;20038;-61
2023/12/28 09:23:33;;;;;;;7.85;4.50;;;6.40;71.50;;;;;;5008877;28;20476;-61
2023/12/28 09:26:00;;;;;;;10.38;4.07;;;6.50;71.60;;;;;;5008562;28;20057;-61
2023/12/28 09:28:26;;;;;;;9.85;4.88;;;6.50;71.60;;;;;;5003442;28;20036;-61
2023/12/28 09:30:51;;;;;;;10.63;5.68;;;6.50;71.70;;;;;;5008066;28;20041;-61
2023/12/28 09:33:17;;;;;;;10.27;5.75;;;6.60;71.70;;;;;;4996766;28;20034;-61
2023/12/28 09:35:42;;;;;;;8.13;5.07;;;6.60;72.30;;;;;;4999338;28;20116;-61
2023/12/28 09:38:08;;;;;;;9.40;5.75;;;6.60;71.70;;;;;;5001102;28;20667;-61
2023/12/28 09:40:36;;;;;;;10.32;5.28;;;6.70;71.70;;;;;;5002817;28;20085;-61
2023/12/28 09:43:15;;;;;;;8.73;5.78;;;6.70;71.70;;;;;;4999795;28;20025;-61
2023/12/28 09:45:40;;;;;;;11.60;7.25;;;6.70;72.00;;;;;;4992339;28;20034;-61
2023/12/28 09:48:06;;;;;;;14.07;7.22;;;6.80;71.80;;;;;;4998169;28;20040;-60
2023/12/28 09:50:32;;;;;;;15.55;7.63;;;6.80;71.70;;;;;;5001718;28;21036;-61
2023/12/28 09:52:58;;;;;;;15.38;8.82;;;6.80;71.70;;;;;;5002708;28;20022;-60
2023/12/28 09:55:25;;;;;;;15.43;9.13;;;6.90;71.80;;;;;;5003984;28;20037;-60
2023/12/28 09:57:51;;;;;;;20.25;8.35;;;6.90;71.60;;;;;;5006814;28;20030;-60
2023/12/28 10:00:17;;;;;;;16.73;9.95;;;7.00;71.70;;;;;;4912326;28;20038;-61
2023/12/28 10:02:45;;;;;;;19.33;10.32;;;7.00;71.60;;;;;;5001978;28;20037;-61
2023/12/28 10:05:16;;;;;;;16.35;9.50;;;7.00;71.50;;;;;;4983807;28;20442;-60
2023/12/28 10:07:43;;;;;;;16.25;9.27;;;7.10;71.50;;;;;;5000688;28;20500;-63
2023/12/28 10:10:09;;;;;;;14.23;7.75;;;7.10;71.30;;;;;;5009007;28;20058;-61
2023/12/28 10:12:36;;;;;;;12.80;7.93;;;7.20;71.30;;;;;;5006793;28;20068;-63
2023/12/28 10:15:02;;;;;;;13.98;8.15;;;7.20;71.20;;;;;;4989079;28;20081;-63
2023/12/28 10:17:27;;;;;;;15.38;7.95;;;7.30;71.00;;;;;;5005683;28;20109;-62
2023/12/28 10:19:55;;;;;;;17.38;7.78;;;7.30;70.80;;;;;;5004436;28;20117;-62
2023/12/28 10:22:21;;;;;;;15.80;7.72;;;7.40;70.50;;;;;;5003128;28;20026;-61
2023/12/28 10:24:48;;;;;;;15.82;8.30;;;7.40;70.50;;;;;;5002605;28;20103;-60
2023/12/28 10:27:14;;;;;;;16.05;8.10;;;7.50;70.60;;;;;;4988822;28;20034;-60
2023/12/28 10:29:40;;;;;;;14.20;7.95;;;7.60;70.60;;;;;;4998689;28;20038;-59
2023/12/28 10:32:05;;;;;;;19.30;8.70;;;7.60;70.30;;;;;;5002753;28;20049;-61
2023/12/28 10:34:31;;;;;;;14.65;7.80;;;7.70;70.30;;;;;;5002558;28;20026;-63
2023/12/28 10:36:59;;;;;;;18.17;10.60;;;7.80;70.20;;;;;;5007274;28;20108;-60
2023/12/28 10:39:25;;;;;;;19.27;10.10;;;7.80;70.00;;;;;;4990420;28;20025;-60
2023/12/28 10:41:55;;;;;;;20.77;9.73;;;7.90;69.90;;;;;;5009308;28;20488;-59
2023/12/28 10:44:23;;;;;;;17.30;9.05;;;7.90;69.70;;;;;;4992524;28;20030;-61
2023/12/28 10:46:53;;;;;;;15.07;8.95;;;8.00;69.60;;;;;;4987251;28;20670;-60
2023/12/28 10:49:24;;;;;;;15.77;8.93;;;8.00;69.20;;;;;;5009347;28;20060;-60
2023/12/28 10:51:52;;;;;;;14.82;9.43;;;8.10;69.20;;;;;;5004430;28;20566;-60
2023/12/28 10:54:56;;;;;;;17.00;9.82;;;8.10;69.30;;;;;;5001142;28;20061;-60
2023/12/28 10:57:44;;;;;;;14.60;8.63;;;8.20;69.20;;;;;;5003158;28;20030;-60
2023/12/28 11:00:13;;;;;;;15.02;8.68;;;8.30;69.10;;;;;;4918346;28;20030;-60
2023/12/28 11:02:45;;;;;;;14.73;9.13;;;8.30;69.10;;;;;;5007381;28;20033;-60
2023/12/28 11:05:12;;;;;;;14.88;9.52;;;8.40;69.00;;;;;;5009419;28;20030;-61
2023/12/28 11:07:39;;;;;;;19.70;10.13;;;8.50;69.00;;;;;;5004355;28;20659;-62
2023/12/28 11:10:07;;;;;;;14.10;8.65;;;8.50;69.00;;;;;;4987697;28;20038;-62
2023/12/28 11:12:32;;;;;;;20.00;9.18;;;8.60;69.10;;;;;;5003401;28;20018;-62
2023/12/28 11:14:59;;;;;;;20.90;9.30;;;8.60;68.90;;;;;;5006402;28;20392;-61
2023/12/28 11:17:25;;;;;;;16.73;8.85;;;8.70;68.60;;;;;;5008819;28;20095;-62
2023/12/28 11:19:53;;;;;;;14.30;8.73;;;8.70;69.10;;;;;;5003742;28;20037;-61
2023/12/28 11:22:20;;;;;;;13.75;8.25;;;8.80;68.40;;;;;;5007664;28;20041;-62
2023/12/28 11:24:46;;;;;;;15.45;7.07;;;8.80;68.20;;;;;;5005826;28;20428;-61
2023/12/28 11:27:12;;;;;;;11.20;5.57;;;8.90;68.00;;;;;;5005003;28;20125;-61
2023/12/28 11:29:38;;;;;;;10.60;4.22;;;8.90;67.50;;;;;;5004038;28;20026;-62
2023/12/28 11:32:04;;;;;;;10.10;3.95;;;8.90;67.40;;;;;;5000693;28;20042;-62
2023/12/28 11:34:33;;;;;;;7.70;3.80;;;9.00;67.30;;;;;;4999677;28;20475;-61
2023/12/28 11:37:06;;;;;;;5.70;3.67;;;9.00;66.90;;;;;;5005922;28;20096;-62
2023/12/28 11:39:36;;;;;;;11.35;3.83;;;9.10;66.80;;;;;;5003640;28;20117;-61
2023/12/28 11:42:05;;;;;;;8.38;4.38;;;9.20;66.50;;;;;;5004624;28;20034;-61
2023/12/28 11:44:37;;;;;;;7.53;4.20;;;9.20;66.10;;;;;;5004214;28;20116;-61
2023/12/28 11:47:12;;;;;;;7.00;3.67;;;9.30;66.00;;;;;;5002808;28;20037;-60
2023/12/28 11:49:40;;;;;;;4.90;3.30;;;9.40;65.40;;;;;;5006486;28;20880;-61
2023/12/28 11:52:07;;;;;;;10.00;3.70;;;9.50;65.80;;;;;;5007741;28;20050;-61
2023/12/28 11:54:33;;;;;;;6.70;3.63;;;9.60;65.70;;;;;;5003068;28;20069;-62
2023/12/28 11:56:58;;;;;;;7.90;3.13;;;9.60;65.60;;;;;;5007661;28;20133;-61
2023/12/28 11:59:24;;;;;;;7.00;3.40;;;9.70;65.40;;;;;;4918082;28;20026;-60
2023/12/28 12:01:53;;;;;;;6.78;3.35;;;9.70;65.20;;;;;;4985786;28;20444;-61
2023/12/28 12:04:20;;;;;;;6.45;4.07;;;9.80;64.90;;;;;;5003841;28;20037;-61
2023/12/28 12:06:50;;;;;;;5.38;3.50;;;9.90;65.10;;;;;;5004984;28;20037;-61
2023/12/28 12:09:16;;;;;;;7.50;3.80;;;9.90;64.90;;;;;;5006652;28;20037;-61
2023/12/28 12:11:42;;;;;;;5.88;3.63;;;10.10;65.20;;;;;;4999694;28;20396;-61
2023/12/28 12:14:11;;;;;;;6.43;3.60;;;10.10;65.00;;;;;;5003279;28;20213;-62
2023/12/28 12:16:38;;;;;;;5.32;3.38;;;10.10;64.60;;;;;;5002874;28;20026;-61
2023/12/28 12:19:07;;;;;;;8.07;3.95;;;10.20;64.50;;;;;;5004126;28;20021;-61
2023/12/28 12:21:34;;;;;;;6.43;3.42;;;10.30;64.40;;;;;;4999927;28;20499;-61
2023/12/28 12:24:01;;;;;;;6.32;3.75;;;10.40;64.50;;;;;;5001420;28;20112;-60
2023/12/28 12:26:29;;;;;;;7.28;4.18;;;10.40;64.30;;;;;;5004893;28;20040;-61
2023/12/28 12:28:55;;;;;;;7.47;3.60;;;10.50;64.20;;;;;;5004877;28;20029;-61
2023/12/28 12:31:21;;;;;;;7.53;3.10;;;10.60;63.70;;;;;;5008979;28;20852;-61
2023/12/28 12:33:47;;;;;;;6.75;3.88;;;10.60;63.50;;;;;;5003434;28;20408;-61
2023/12/28 12:36:12;;;;;;;8.32;4.00;;;10.60;63.30;;;;;;5003889;28;20523;-60
2023/12/28 12:38:38;;;;;;;7.82;3.83;;;10.70;63.50;;;;;;5004975;28;20041;-61
2023/12/28 12:41:04;;;;;;;5.80;4.22;;;10.70;63.60;;;;;;4986499;28;20147;-60
2023/12/28 12:43:30;;;;;;;7.88;4.22;;;10.70;63.70;;;;;;4996965;28;20042;-62
2023/12/28 12:45:56;;;;;;;9.63;4.43;;;10.80;63.80;;;;;;5003991;28;20512;-62
2023/12/28 12:48:22;;;;;;;6.57;4.18;;;10.80;63.80;;;;;;4985541;28;20084;-61
2023/12/28 12:50:47;;;;;;;8.00;4.50;;;10.80;63.70;;;;;;5002111;28;20488;-61